KEWK

Newton-City-County Airport

Newton, Kansas, USA
METAR KEWK 191456Z AUTO 19015KT 10SM CLR M01/M07 A2992 RMK AO2 SLP139 T10111072 55005 FZRANO
Observed Flight Rules
Jan-19 @ 14:56 UTC (26 minutes ago) Visual Flight Rules
Wind Visibility Clouds
190° at 15 knots 10 miles
  • Clear skies
Temperatures Readings
Current -1°C / 30°F
Dewpoint -7°C / 19°F
Humidity 64%
Altimeter 29.92" Hg
Pressure 1013.9 hPa
Elevation 467
METAR KEWK 191456Z AUTO 19015KT 10SM CLR M01/M07 A2992 RMK AO2 SLP139 T10111072 55005 FZRANO
Observed Flight Rules
Jan-19 @ 14:56 UTC
(26 minutes ago)
VFR
Wind Visibility
190° at 15 knots 10 miles
Clouds
  • Clear skies
Temperature Dewpoint
-1°C / 30°F -7°C / 19°F
Humidity Altimeter Pressure
64% 29.92" Hg 1013.9 hPa